createdAt,value
2019-01-30T00:00:47.826Z,99.99
2019-01-30T00:01:47.799Z,99.99
2019-01-30T00:02:47.775Z,99.99
2019-01-30T00:03:47.749Z,99.99
2019-01-30T00:04:47.724Z,99.99
2019-01-30T00:05:47.701Z,99.99
2019-01-30T00:06:47.680Z,99.99
2019-01-30T00:07:47.653Z,99.99
2019-01-30T00:08:47.632Z,99.99
2019-01-30T00:09:47.601Z,99.99
2019-01-30T00:10:47.583Z,99.99
2019-01-30T00:11:47.561Z,99.99
2019-01-30T00:12:47.533Z,99.99
2019-01-30T00:13:47.509Z,99.99
2019-01-30T00:14:47.481Z,99.99
2019-01-30T00:15:56.067Z,99.99
2019-01-30T00:16:47.429Z,99.99
2019-01-30T00:17:47.411Z,99.99
2019-01-30T00:18:47.384Z,99.99
2019-01-30T00:19:47.367Z,99.99
2019-01-30T00:20:47.333Z,99.99
2019-01-30T00:21:47.308Z,99.99
2019-01-30T00:22:47.295Z,99.99
2019-01-30T00:23:47.262Z,99.99
2019-01-30T00:24:47.241Z,99.99
2019-01-30T00:25:47.213Z,99.99
2019-01-30T00:26:47.185Z,99.99
2019-01-30T00:27:47.167Z,99.99
2019-01-30T00:28:47.139Z,99.99
2019-01-30T00:29:47.118Z,99.99
2019-01-30T00:30:47.091Z,99.99
2019-01-30T00:31:47.063Z,99.99
2019-01-30T00:32:47.035Z,99.99
2019-01-30T00:33:47.016Z,99.99
2019-01-30T00:34:46.993Z,99.99
2019-01-30T00:35:46.965Z,99.99
2019-01-30T00:36:46.939Z,99.99
2019-01-30T00:37:46.916Z,99.99
2019-01-30T00:38:46.890Z,99.99
2019-01-30T00:39:46.863Z,99.99
2019-01-30T00:40:46.842Z,99.99
2019-01-30T00:41:46.817Z,99.99
2019-01-30T00:42:46.793Z,99.99
2019-01-30T00:43:46.766Z,99.99
2019-01-30T00:44:46.743Z,99.99
2019-01-30T00:45:46.718Z,99.99
2019-01-30T00:46:46.695Z,99.99
2019-01-30T00:47:46.671Z,99.99
2019-01-30T00:48:46.643Z,99.99
2019-01-30T00:49:46.619Z,99.99
2019-01-30T00:50:46.593Z,99.99
2019-01-30T00:51:46.569Z,99.99
2019-01-30T00:52:46.553Z,99.99
2019-01-30T00:53:46.525Z,99.99
2019-01-30T00:54:46.497Z,99.99
2019-01-30T00:55:46.469Z,99.99
2019-01-30T00:56:46.446Z,99.99
2019-01-30T00:57:46.423Z,99.99
2019-01-30T00:58:46.399Z,99.99
2019-01-30T00:59:46.377Z,99.99
2019-01-30T01:00:46.352Z,99.99
2019-01-30T01:01:46.330Z,99.99
2019-01-30T01:02:46.301Z,99.99
2019-01-30T01:03:46.273Z,99.99
2019-01-30T01:04:46.249Z,99.99
2019-01-30T01:05:46.227Z,99.99
2019-01-30T01:06:46.199Z,99.99
2019-01-30T01:07:46.185Z,99.99
2019-01-30T01:08:46.150Z,99.99
2019-01-30T01:09:46.125Z,99.99
2019-01-30T01:10:46.104Z,99.99
2019-01-30T01:11:46.077Z,99.99
2019-01-30T01:12:46.061Z,99.99
2019-01-30T01:13:46.031Z,99.99
2019-01-30T01:14:46.003Z,99.99
2019-01-30T01:15:45.979Z,99.99
2019-01-30T01:16:45.958Z,99.99
2019-01-30T01:17:45.927Z,99.99
2019-01-30T01:18:45.902Z,99.99
2019-01-30T01:19:45.890Z,99.99
2019-01-30T01:20:45.857Z,99.99
2019-01-30T01:21:45.831Z,99.99
2019-01-30T01:22:45.805Z,99.99
2019-01-30T01:23:45.776Z,99.99
2019-01-30T01:24:45.758Z,99.99
2019-01-30T01:25:45.728Z,99.99
2019-01-30T01:26:45.706Z,99.99
2019-01-30T01:27:45.680Z,99.99
2019-01-30T01:28:45.656Z,99.99
2019-01-30T01:29:45.634Z,99.99
2019-01-30T01:30:45.609Z,99.99
2019-01-30T01:31:45.580Z,99.99
2019-01-30T01:32:46.889Z,99.99
2019-01-30T01:33:45.536Z,99.99
2019-01-30T01:34:45.509Z,99.99
2019-01-30T01:35:45.482Z,99.99
2019-01-30T01:36:45.460Z,99.99
2019-01-30T01:37:45.434Z,99.99
2019-01-30T01:38:45.410Z,99.99
2019-01-30T01:39:45.385Z,99.99
2019-01-30T01:40:45.359Z,99.99
2019-01-30T01:41:45.332Z,99.99
2019-01-30T01:42:45.309Z,99.99
2019-01-30T01:43:45.285Z,99.99
2019-01-30T01:44:45.262Z,99.99
2019-01-30T01:45:45.238Z,99.99
2019-01-30T01:46:45.213Z,99.99
2019-01-30T01:47:45.193Z,99.99
2019-01-30T01:48:45.164Z,99.99
2019-01-30T01:49:45.174Z,99.99
2019-01-30T01:50:45.108Z,99.99
2019-01-30T01:51:45.088Z,99.99
2019-01-30T01:52:45.060Z,99.99
2019-01-30T01:53:45.040Z,99.99
2019-01-30T01:54:45.015Z,99.99
2019-01-30T01:55:44.984Z,99.99
2019-01-30T01:56:44.964Z,99.99
2019-01-30T01:57:44.937Z,99.99
2019-01-30T01:58:44.918Z,99.99
2019-01-30T01:59:44.888Z,99.99
2019-01-30T02:00:44.862Z,99.99
2019-01-30T02:01:44.842Z,99.99
2019-01-30T02:02:44.814Z,99.99
2019-01-30T02:03:44.794Z,99.99
2019-01-30T02:04:44.766Z,99.99
2019-01-30T02:05:44.742Z,99.99
2019-01-30T02:06:44.712Z,99.99
2019-01-30T02:07:44.693Z,99.99
2019-01-30T02:08:44.662Z,99.99
2019-01-30T02:09:44.642Z,99.99
2019-01-30T02:10:44.622Z,99.99
2019-01-30T02:11:44.640Z,99.99
2019-01-30T02:12:44.565Z,99.99
2019-01-30T02:13:44.538Z,99.99
2019-01-30T02:14:44.518Z,99.99
2019-01-30T02:15:44.487Z,99.99
2019-01-30T02:16:44.470Z,99.99
2019-01-30T02:17:44.439Z,99.99
2019-01-30T02:18:44.418Z,99.99
2019-01-30T02:19:44.396Z,99.99
2019-01-30T02:20:44.368Z,99.99
2019-01-30T02:21:44.342Z,99.99
2019-01-30T02:22:44.317Z,99.99
2019-01-30T02:23:44.290Z,99.99
2019-01-30T02:24:44.270Z,99.99
2019-01-30T02:25:44.241Z,99.99
2019-01-30T02:26:44.220Z,99.99
2019-01-30T02:27:44.199Z,99.99
2019-01-30T02:28:44.168Z,99.99
2019-01-30T02:29:44.143Z,99.99
2019-01-30T02:30:47.531Z,99.99
2019-01-30T02:31:44.096Z,99.99
2019-01-30T02:32:44.068Z,99.99
2019-01-30T02:33:44.050Z,99.99
2019-01-30T02:34:44.022Z,99.99
2019-01-30T02:35:44.001Z,99.99
2019-01-30T02:36:43.974Z,99.99
2019-01-30T02:37:43.943Z,99.99
2019-01-30T02:38:43.925Z,99.99
2019-01-30T02:39:43.895Z,99.99
2019-01-30T02:40:43.871Z,99.99
2019-01-30T02:41:43.849Z,99.99
2019-01-30T02:42:43.828Z,99.99
2019-01-30T02:43:43.795Z,99.99
2019-01-30T02:44:43.771Z,99.99
2019-01-30T02:45:43.745Z,99.99
2019-01-30T02:46:43.719Z,99.99
2019-01-30T02:47:43.693Z,99.99
2019-01-30T02:48:43.673Z,99.99
2019-01-30T02:49:43.647Z,99.99
2019-01-30T02:50:43.620Z,99.99
2019-01-30T02:51:43.597Z,99.99
2019-01-30T02:52:43.574Z,99.99
2019-01-30T02:53:43.552Z,99.99
2019-01-30T02:54:43.521Z,99.99
2019-01-30T02:55:43.499Z,99.99
2019-01-30T02:56:43.475Z,99.99
2019-01-30T02:57:43.445Z,99.99
2019-01-30T02:58:43.427Z,99.99
2019-01-30T02:59:43.398Z,99.99
2019-01-30T03:00:43.371Z,99.99
2019-01-30T03:01:43.351Z,99.99
2019-01-30T03:02:43.323Z,99.99
2019-01-30T03:03:43.301Z,99.99
2019-01-30T03:04:43.274Z,99.99
2019-01-30T03:05:43.252Z,99.99
2019-01-30T03:06:43.223Z,99.99
2019-01-30T03:07:43.201Z,99.99
2019-01-30T03:08:43.176Z,99.99
2019-01-30T03:09:43.149Z,99.99
2019-01-30T03:10:43.125Z,99.99
2019-01-30T03:11:43.101Z,99.99
2019-01-30T03:12:43.080Z,99.99
2019-01-30T03:13:43.054Z,99.99
2019-01-30T03:14:43.021Z,99.99
2019-01-30T03:15:43.004Z,99.99
2019-01-30T03:16:42.983Z,99.99
2019-01-30T03:17:42.954Z,99.99
2019-01-30T03:18:42.929Z,99.99
2019-01-30T03:19:42.897Z,99.99
2019-01-30T03:20:42.876Z,99.99
2019-01-30T03:21:42.849Z,99.99
2019-01-30T03:22:42.827Z,99.99
2019-01-30T03:23:42.807Z,99.99
2019-01-30T03:24:42.780Z,99.99
2019-01-30T03:25:42.753Z,99.99
2019-01-30T03:26:42.726Z,99.99
2019-01-30T03:27:42.702Z,99.99
2019-01-30T03:28:42.678Z,99.99
2019-01-30T03:29:42.655Z,99.99
2019-01-30T03:30:42.638Z,99.99
2019-01-30T03:31:42.607Z,99.99
2019-01-30T03:32:42.591Z,99.99
2019-01-30T03:33:42.563Z,99.99
2019-01-30T03:34:42.537Z,99.99
2019-01-30T03:35:42.503Z,99.99
2019-01-30T03:36:42.476Z,99.99
2019-01-30T03:37:42.454Z,99.99
2019-01-30T03:38:42.430Z,99.99
2019-01-30T03:39:42.404Z,99.99
2019-01-30T03:40:42.377Z,99.99
2019-01-30T03:41:42.362Z,99.99
2019-01-30T03:42:42.328Z,99.99
2019-01-30T03:43:42.311Z,99.99
2019-01-30T03:44:42.280Z,99.99
2019-01-30T03:45:42.255Z,99.99
2019-01-30T03:46:42.228Z,99.99
2019-01-30T03:47:42.204Z,99.99
2019-01-30T03:48:42.176Z,99.99
2019-01-30T03:49:42.154Z,99.99
2019-01-30T03:50:42.130Z,99.99
2019-01-30T03:51:42.261Z,99.99
2019-01-30T03:52:42.083Z,99.99
2019-01-30T03:53:42.053Z,99.99
2019-01-30T03:54:42.032Z,99.99
2019-01-30T03:55:42.013Z,99.99
2019-01-30T03:56:41.980Z,99.99
2019-01-30T03:57:41.954Z,99.99
2019-01-30T03:58:41.929Z,99.99
2019-01-30T03:59:41.905Z,99.99
2019-01-30T04:00:41.883Z,99.99
2019-01-30T04:01:41.850Z,99.99
2019-01-30T04:02:41.833Z,99.99
2019-01-30T04:03:41.806Z,99.99
2019-01-30T04:04:41.785Z,99.99
2019-01-30T04:05:41.758Z,99.99
2019-01-30T04:06:41.731Z,99.99
2019-01-30T04:07:41.705Z,99.99
2019-01-30T04:08:41.680Z,99.99
2019-01-30T04:09:41.654Z,99.99
2019-01-30T04:10:41.632Z,99.99
2019-01-30T04:11:41.607Z,99.99
2019-01-30T04:12:41.585Z,99.99
2019-01-30T04:13:41.553Z,99.99
2019-01-30T04:14:41.530Z,99.99
2019-01-30T04:15:41.506Z,99.99
2019-01-30T04:16:41.483Z,99.99
2019-01-30T04:17:41.459Z,99.99
2019-01-30T04:18:41.436Z,99.99
2019-01-30T04:19:41.409Z,99.99
2019-01-30T04:20:41.382Z,99.99
2019-01-30T04:21:41.360Z,99.99
2019-01-30T04:22:41.336Z,99.99
2019-01-30T04:23:41.308Z,99.99
2019-01-30T04:24:41.280Z,99.99
2019-01-30T04:25:41.259Z,99.99
2019-01-30T04:26:41.236Z,99.99
2019-01-30T04:27:41.218Z,99.99
2019-01-30T04:28:41.183Z,99.99
2019-01-30T04:29:41.159Z,99.99
2019-01-30T04:30:41.137Z,99.99
2019-01-30T04:31:41.111Z,99.99
2019-01-30T04:32:41.099Z,99.99
2019-01-30T04:33:41.072Z,99.99
2019-01-30T04:34:41.040Z,99.99
2019-01-30T04:35:41.009Z,99.99
2019-01-30T04:36:40.989Z,99.99
2019-01-30T04:37:40.966Z,99.99
2019-01-30T04:38:40.939Z,99.99
2019-01-30T04:39:40.914Z,99.99
2019-01-30T04:40:40.885Z,99.99
2019-01-30T04:41:40.863Z,99.99
2019-01-30T04:42:40.835Z,99.99
2019-01-30T04:43:40.807Z,99.99
2019-01-30T04:44:40.788Z,99.99
2019-01-30T04:45:40.760Z,99.99
2019-01-30T04:46:40.751Z,99.99
2019-01-30T04:47:40.706Z,99.99
2019-01-30T04:48:40.687Z,99.99
2019-01-30T04:49:40.659Z,99.99
2019-01-30T04:50:40.635Z,99.99
2019-01-30T04:51:40.700Z,99.99
2019-01-30T04:52:40.587Z,99.99
2019-01-30T04:53:40.563Z,99.99
2019-01-30T04:54:40.547Z,99.99
2019-01-30T04:55:40.509Z,99.99
2019-01-30T04:56:40.484Z,99.99
2019-01-30T04:57:40.461Z,99.99
2019-01-30T04:58:40.444Z,99.99
2019-01-30T04:59:40.405Z,99.99
2019-01-30T05:00:40.386Z,99.99
2019-01-30T05:01:49.407Z,99.99
2019-01-30T05:02:40.334Z,99.99
2019-01-30T05:03:40.307Z,99.99
2019-01-30T05:04:40.284Z,99.99
2019-01-30T05:05:40.259Z,99.99
2019-01-30T05:06:40.235Z,99.99
2019-01-30T05:07:40.211Z,99.99
2019-01-30T05:08:40.182Z,99.99
2019-01-30T05:09:40.156Z,99.99
2019-01-30T05:10:40.138Z,99.99
2019-01-30T05:11:40.108Z,99.99
2019-01-30T05:12:40.088Z,99.99
2019-01-30T05:13:40.062Z,99.99
2019-01-30T05:14:40.135Z,99.99
2019-01-30T05:15:40.022Z,99.99
2019-01-30T05:16:39.984Z,99.99
2019-01-30T05:17:39.966Z,99.99
2019-01-30T05:18:39.933Z,99.99
2019-01-30T05:19:39.912Z,99.99
2019-01-30T05:20:39.889Z,99.99
2019-01-30T05:21:39.863Z,99.99
2019-01-30T05:22:39.837Z,99.99
2019-01-30T05:23:39.811Z,99.99
2019-01-30T05:24:39.914Z,99.99
2019-01-30T05:25:39.759Z,99.99
2019-01-30T05:26:39.737Z,99.99
2019-01-30T05:27:39.711Z,99.99
2019-01-30T05:28:39.690Z,99.99
2019-01-30T05:29:39.663Z,99.99
2019-01-30T05:30:39.635Z,99.99
2019-01-30T05:31:39.611Z,99.99
2019-01-30T05:32:39.585Z,99.99
2019-01-30T05:33:39.562Z,99.99
2019-01-30T05:34:39.537Z,99.99
2019-01-30T05:35:39.507Z,99.99
2019-01-30T05:36:39.487Z,99.99
2019-01-30T05:37:39.472Z,99.99
2019-01-30T05:38:39.435Z,99.99
2019-01-30T05:39:39.413Z,99.99
2019-01-30T05:40:39.387Z,99.99
2019-01-30T05:41:39.359Z,99.99
2019-01-30T05:42:39.335Z,99.99
2019-01-30T05:43:42.452Z,99.99
2019-01-30T05:44:39.289Z,99.99
2019-01-30T05:45:39.262Z,99.99
2019-01-30T05:46:39.284Z,99.99
2019-01-30T05:47:39.213Z,99.99
2019-01-30T05:48:39.191Z,99.99
2019-01-30T05:49:39.158Z,99.99
2019-01-30T05:50:39.137Z,99.99
2019-01-30T05:51:39.109Z,99.99
2019-01-30T05:52:39.095Z,99.99
2019-01-30T05:53:39.069Z,99.99
2019-01-30T05:54:39.038Z,99.99
2019-01-30T05:55:39.009Z,99.99
2019-01-30T05:56:38.989Z,99.99
2019-01-30T05:57:38.960Z,99.99
2019-01-30T05:58:38.951Z,99.99
2019-01-30T05:59:38.908Z,99.99
2019-01-30T06:00:38.892Z,99.99
2019-01-30T06:01:38.860Z,99.99
2019-01-30T06:02:38.836Z,99.99
2019-01-30T06:03:38.810Z,99.99
2019-01-30T06:04:38.785Z,99.99
2019-01-30T06:05:38.765Z,99.99
2019-01-30T06:06:38.734Z,99.99
2019-01-30T06:07:38.734Z,99.99
2019-01-30T06:08:38.687Z,99.99
2019-01-30T06:09:38.666Z,99.99
2019-01-30T06:10:38.634Z,99.99
2019-01-30T06:11:38.612Z,99.99
2019-01-30T06:12:38.585Z,99.99
2019-01-30T06:13:38.558Z,99.99
2019-01-30T06:14:38.548Z,99.99
2019-01-30T06:15:38.512Z,99.99
2019-01-30T06:16:38.482Z,99.99
2019-01-30T06:17:38.460Z,99.99
2019-01-30T06:18:38.436Z,99.99
2019-01-30T06:19:38.410Z,99.99
2019-01-30T06:20:38.388Z,99.99
2019-01-30T06:21:38.362Z,99.99
2019-01-30T06:22:38.337Z,99.99
2019-01-30T06:23:38.315Z,99.99
2019-01-30T06:24:38.288Z,99.99
2019-01-30T06:25:38.267Z,99.99
2019-01-30T06:26:38.236Z,99.99
2019-01-30T06:27:38.214Z,99.99
2019-01-30T06:28:38.193Z,99.99
2019-01-30T06:29:38.160Z,99.99
2019-01-30T06:30:38.139Z,99.99
2019-01-30T06:31:38.113Z,99.99
2019-01-30T06:32:38.088Z,99.99
2019-01-30T06:33:38.064Z,99.99
2019-01-30T06:34:38.035Z,99.99
2019-01-30T06:35:38.010Z,99.99
2019-01-30T06:36:37.984Z,99.99
2019-01-30T06:37:37.966Z,99.99
2019-01-30T06:38:37.944Z,99.99
2019-01-30T06:39:37.908Z,99.99
2019-01-30T06:40:37.886Z,99.99
2019-01-30T06:41:37.864Z,99.99
2019-01-30T06:42:37.837Z,99.99
2019-01-30T06:43:37.813Z,99.99
2019-01-30T06:44:37.788Z,99.99
2019-01-30T06:45:37.763Z,99.99
2019-01-30T06:46:37.734Z,99.99
2019-01-30T06:47:37.715Z,99.99
2019-01-30T06:48:37.690Z,99.99
2019-01-30T06:49:37.659Z,99.99
2019-01-30T06:50:37.634Z,99.99
2019-01-30T06:51:37.610Z,99.99
2019-01-30T06:52:37.587Z,99.99
2019-01-30T06:53:37.560Z,99.99
2019-01-30T06:54:37.539Z,99.99
2019-01-30T06:55:37.514Z,99.99
2019-01-30T06:56:37.488Z,99.99
2019-01-30T06:57:37.461Z,99.99
2019-01-30T06:58:37.437Z,99.99
2019-01-30T06:59:37.411Z,99.99
2019-01-30T07:00:37.388Z,99.99
2019-01-30T07:01:37.367Z,99.99
2019-01-30T07:02:37.340Z,99.99
2019-01-30T07:03:37.309Z,99.99
2019-01-30T07:04:37.289Z,99.99
2019-01-30T07:05:37.261Z,99.99
2019-01-30T07:06:37.239Z,99.99
2019-01-30T07:07:37.211Z,99.99
2019-01-30T07:08:37.185Z,99.99
2019-01-30T07:09:37.161Z,99.99
2019-01-30T07:10:37.137Z,99.99
2019-01-30T07:11:37.108Z,99.99
2019-01-30T07:12:37.084Z,99.99
2019-01-30T07:13:37.066Z,99.99
2019-01-30T07:14:37.039Z,99.99
2019-01-30T07:15:37.014Z,99.99
2019-01-30T07:16:36.987Z,99.99
2019-01-30T07:17:36.958Z,99.99
2019-01-30T07:18:36.942Z,99.99
2019-01-30T07:19:36.910Z,99.99
2019-01-30T07:20:36.888Z,99.99
2019-01-30T07:21:36.867Z,99.99
2019-01-30T07:22:36.838Z,99.99
2019-01-30T07:23:36.809Z,99.99
2019-01-30T07:24:36.785Z,99.99
2019-01-30T07:25:36.984Z,99.99
2019-01-30T07:26:36.737Z,99.99
2019-01-30T07:27:36.709Z,99.99
2019-01-30T07:28:36.685Z,99.99
2019-01-30T07:29:36.665Z,99.99
2019-01-30T07:30:36.645Z,99.99
2019-01-30T07:31:36.613Z,99.99
2019-01-30T07:32:42.349Z,99.99
2019-01-30T07:33:36.567Z,99.99
2019-01-30T07:34:36.535Z,99.99
2019-01-30T07:35:36.515Z,99.99
2019-01-30T07:36:36.487Z,99.99
2019-01-30T07:37:36.465Z,99.99
2019-01-30T07:38:36.435Z,99.99
2019-01-30T07:39:36.410Z,99.99
2019-01-30T07:40:36.391Z,99.99
2019-01-30T07:41:36.361Z,99.99
2019-01-30T07:42:36.339Z,99.99
2019-01-30T07:43:36.315Z,99.99
2019-01-30T07:44:36.286Z,99.99
2019-01-30T07:45:36.259Z,99.99
2019-01-30T07:46:36.237Z,99.99
2019-01-30T07:47:36.223Z,99.99
2019-01-30T07:48:36.189Z,99.99
2019-01-30T07:49:36.163Z,99.99
2019-01-30T07:50:36.139Z,99.99
2019-01-30T07:51:36.113Z,99.99
2019-01-30T07:52:36.088Z,99.99
2019-01-30T07:53:36.065Z,99.99
2019-01-30T07:54:36.039Z,99.99
2019-01-30T07:55:36.016Z,99.99
2019-01-30T07:56:35.989Z,99.99
2019-01-30T07:57:35.963Z,99.99
2019-01-30T07:58:35.945Z,99.99
2019-01-30T07:59:35.917Z,99.99
2019-01-30T08:00:35.893Z,99.99
2019-01-30T08:01:35.902Z,99.99
2019-01-30T08:02:35.847Z,99.99
2019-01-30T08:03:35.819Z,99.99
2019-01-30T08:04:35.791Z,99.99
2019-01-30T08:05:35.778Z,99.99
2019-01-30T08:06:35.746Z,99.99
2019-01-30T08:07:35.723Z,99.99
2019-01-30T08:08:35.699Z,99.99
2019-01-30T08:09:35.669Z,99.99
2019-01-30T08:10:35.648Z,99.99
2019-01-30T08:11:35.631Z,99.99
2019-01-30T08:12:35.598Z,99.99
2019-01-30T08:13:35.575Z,99.99
2019-01-30T08:14:35.551Z,99.99
2019-01-30T08:15:35.521Z,99.99
2019-01-30T08:16:35.497Z,99.99
2019-01-30T08:17:35.480Z,99.99
2019-01-30T08:18:35.455Z,99.99
2019-01-30T08:19:35.426Z,99.99
2019-01-30T08:20:35.401Z,99.99
2019-01-30T08:21:35.388Z,99.99
2019-01-30T08:22:35.443Z,99.99
2019-01-30T08:23:35.517Z,99.99
2019-01-30T08:24:35.348Z,99.99
2019-01-30T08:25:35.364Z,99.99
2019-01-30T08:26:35.526Z,99.99
2019-01-30T08:27:35.255Z,99.99
2019-01-30T08:28:35.637Z,99.99
2019-01-30T08:29:35.269Z,99.99
2019-01-30T08:30:35.162Z,99.99
2019-01-30T08:31:35.139Z,99.99
2019-01-30T08:32:35.470Z,99.99
2019-01-30T08:33:35.089Z,99.99
2019-01-30T08:34:35.065Z,99.99
2019-01-30T08:35:35.046Z,99.99
2019-01-30T08:36:35.018Z,99.99
2019-01-30T08:37:34.998Z,99.99
2019-01-30T08:38:34.970Z,99.99
2019-01-30T08:39:34.950Z,99.99
2019-01-30T08:40:34.924Z,99.99
2019-01-30T08:41:34.896Z,99.99
2019-01-30T08:42:34.873Z,99.99
2019-01-30T08:43:34.848Z,99.99
2019-01-30T08:44:34.823Z,99.99
2019-01-30T08:45:34.804Z,99.99
2019-01-30T08:46:34.782Z,99.99
2019-01-30T08:47:34.760Z,99.99
2019-01-30T08:48:34.843Z,99.99
2019-01-30T08:49:34.715Z,99.99
2019-01-30T08:50:34.682Z,99.99
2019-01-30T08:51:34.661Z,99.99
2019-01-30T08:52:34.646Z,99.99
2019-01-30T08:53:34.624Z,99.99
2019-01-30T08:54:34.590Z,99.99
2019-01-30T08:55:34.569Z,99.99
2019-01-30T08:56:38.941Z,99.99
2019-01-30T08:57:34.521Z,99.99
2019-01-30T08:58:34.504Z,99.99
2019-01-30T08:59:34.473Z,99.99
2019-01-30T09:00:34.453Z,99.99
2019-01-30T09:01:34.432Z,99.99
2019-01-30T09:02:34.406Z,99.99
2019-01-30T09:03:34.375Z,99.99
2019-01-30T09:04:34.358Z,99.99
2019-01-30T09:05:34.338Z,99.99
2019-01-30T09:06:34.310Z,99.99
2019-01-30T09:07:43.875Z,99.99
2019-01-30T09:08:34.257Z,99.99
2019-01-30T09:09:34.237Z,99.99
2019-01-30T09:10:34.220Z,99.99
2019-01-30T09:11:34.186Z,99.99
2019-01-30T09:12:34.168Z,99.99
2019-01-30T09:13:34.146Z,99.99
2019-01-30T09:14:34.121Z,99.99
2019-01-30T09:15:34.093Z,99.99
2019-01-30T09:16:34.073Z,99.99
2019-01-30T09:17:34.054Z,99.99
2019-01-30T09:18:34.026Z,99.99
2019-01-30T09:19:34.002Z,99.99
2019-01-30T09:20:33.984Z,99.99
2019-01-30T09:21:33.954Z,99.99
2019-01-30T09:22:33.936Z,99.99
2019-01-30T09:23:33.918Z,99.99
2019-01-30T09:24:33.921Z,99.99
2019-01-30T09:25:33.861Z,99.99
2019-01-30T09:26:33.839Z,99.99
2019-01-30T09:27:33.822Z,99.63
2019-01-30T09:28:33.789Z,99.91
2019-01-30T09:29:33.771Z,99.01
2019-01-30T09:30:33.742Z,97.78
2019-01-30T09:31:33.723Z,95.84
2019-01-30T09:32:33.724Z,95.27
2019-01-30T09:33:33.815Z,91.33
2019-01-30T09:34:33.686Z,89.72
2019-01-30T09:35:33.632Z,86.24
2019-01-30T09:36:33.608Z,85.34
2019-01-30T09:37:33.613Z,82.58
2019-01-30T09:38:33.560Z,81.54
2019-01-30T09:39:33.537Z,80.58
2019-01-30T09:40:33.520Z,80.30
2019-01-30T09:41:33.495Z,79.16
2019-01-30T09:42:33.470Z,78.21
2019-01-30T09:43:33.446Z,77.49
2019-01-30T09:44:33.426Z,76.44
2019-01-30T09:45:33.420Z,76.35
2019-01-30T09:46:33.442Z,75.49
2019-01-30T09:47:33.355Z,75.21
2019-01-30T09:48:33.393Z,74.92
2019-01-30T09:49:33.313Z,75.30
2019-01-30T09:50:34.263Z,75.05
2019-01-30T09:51:33.271Z,74.01
2019-01-30T09:52:33.251Z,73.15
2019-01-30T09:53:33.230Z,72.81
2019-01-30T09:54:33.241Z,70.75
2019-01-30T09:55:33.190Z,69.48
2019-01-30T09:56:33.181Z,69.00
2019-01-30T09:57:33.146Z,69.67
2019-01-30T09:58:33.129Z,69.60
2019-01-30T09:59:33.108Z,68.62
2019-01-30T10:00:33.084Z,69.10
2019-01-30T10:01:33.063Z,68.65
2019-01-30T10:02:33.043Z,68.65
2019-01-30T10:03:36.351Z,68.46
2019-01-30T10:04:33.001Z,68.43
2019-01-30T10:05:32.988Z,68.62
2019-01-30T10:06:32.957Z,69.04
2019-01-30T10:07:32.937Z,68.27
2019-01-30T10:08:32.919Z,68.46
2019-01-30T10:09:32.897Z,68.65
2019-01-30T10:10:32.967Z,67.99
2019-01-30T10:11:32.871Z,67.89
2019-01-30T10:12:32.843Z,66.56
2019-01-30T10:13:32.824Z,66.53
2019-01-30T10:14:32.798Z,67.67
2019-01-30T10:15:32.773Z,68.08
2019-01-30T10:16:32.754Z,68.37
2019-01-30T10:17:32.740Z,67.61
2019-01-30T10:18:32.716Z,66.66
2019-01-30T10:19:32.691Z,66.33
2019-01-30T10:20:32.671Z,67.35
2019-01-30T10:21:32.650Z,69.35
2019-01-30T10:22:32.633Z,70.01
2019-01-30T10:23:32.609Z,69.25
2019-01-30T10:24:32.589Z,70.36
2019-01-30T10:25:32.566Z,70.93
2019-01-30T10:26:32.547Z,70.83
2019-01-30T10:27:32.528Z,71.50
2019-01-30T10:28:32.502Z,72.45
2019-01-30T10:29:32.483Z,71.59
2019-01-30T10:30:32.463Z,71.66
2019-01-30T10:31:32.444Z,72.22
2019-01-30T10:32:32.419Z,72.75
2019-01-30T10:33:32.397Z,73.71
2019-01-30T10:34:32.378Z,74.56
2019-01-30T10:35:32.363Z,73.38
2019-01-30T10:36:32.334Z,73.29
2019-01-30T10:37:32.318Z,74.87
2019-01-30T10:38:32.293Z,75.81
2019-01-30T10:39:32.269Z,76.48
2019-01-30T10:40:32.253Z,77.24
2019-01-30T10:41:32.229Z,78.66
2019-01-30T10:42:32.211Z,77.84
2019-01-30T10:43:32.191Z,77.84
2019-01-30T10:44:32.163Z,78.42
2019-01-30T10:45:32.140Z,76.80
2019-01-30T10:46:32.126Z,77.84
2019-01-30T10:47:32.102Z,77.47
2019-01-30T10:48:32.081Z,78.51
2019-01-30T10:49:32.059Z,76.52
2019-01-30T10:50:32.038Z,76.14
2019-01-30T10:51:32.016Z,76.10
2019-01-30T10:52:31.992Z,75.72
2019-01-30T10:53:31.969Z,75.81
2019-01-30T10:54:31.953Z,76.20
2019-01-30T10:55:31.927Z,76.10
2019-01-30T10:56:31.905Z,75.72
2019-01-30T10:57:31.881Z,76.20
2019-01-30T10:58:31.862Z,76.57
2019-01-30T10:59:31.842Z,77.05
2019-01-30T11:00:31.819Z,78.19
2019-01-30T11:01:31.797Z,78.47
2019-01-30T11:02:31.774Z,77.71
2019-01-30T11:03:31.760Z,78.42
2019-01-30T11:04:31.738Z,78.03
2019-01-30T11:05:31.716Z,75.85
2019-01-30T11:06:31.687Z,75.57
2019-01-30T11:07:31.662Z,74.43
2019-01-30T11:08:34.410Z,73.72
2019-01-30T11:09:31.624Z,73.44
2019-01-30T11:10:31.604Z,73.63
2019-01-30T11:11:31.578Z,73.54
2019-01-30T11:12:31.558Z,75.15
2019-01-30T11:13:31.534Z,76.48
2019-01-30T11:14:31.518Z,75.91
2019-01-30T11:15:31.488Z,74.68
2019-01-30T11:16:31.465Z,73.54
2019-01-30T11:17:31.450Z,73.25
2019-01-30T11:18:31.428Z,74.87
2019-01-30T11:19:31.407Z,75.24
2019-01-30T11:20:31.381Z,75.34
2019-01-30T11:21:31.366Z,75.34
2019-01-30T11:22:31.337Z,75.34
2019-01-30T11:23:31.314Z,74.39
2019-01-30T11:24:31.289Z,74.20
2019-01-30T11:25:31.273Z,75.15
2019-01-30T11:26:31.248Z,75.62
2019-01-30T11:27:31.222Z,75.81
2019-01-30T11:28:31.201Z,76.48
2019-01-30T11:29:31.186Z,75.43
2019-01-30T11:30:31.161Z,76.06
2019-01-30T11:31:31.133Z,75.72
2019-01-30T11:32:31.115Z,75.40
2019-01-30T11:33:31.095Z,75.96
2019-01-30T11:34:31.067Z,77.05
2019-01-30T11:35:31.046Z,76.39
2019-01-30T11:36:31.022Z,76.20
2019-01-30T11:37:31.010Z,75.91
2019-01-30T11:38:30.982Z,75.81
2019-01-30T11:39:30.957Z,75.72
2019-01-30T11:40:30.937Z,76.10
2019-01-30T11:41:30.921Z,75.49
2019-01-30T11:42:30.895Z,76.25
2019-01-30T11:43:30.880Z,76.15
2019-01-30T11:44:30.849Z,76.54
2019-01-30T11:45:30.825Z,76.06
2019-01-30T11:46:30.807Z,76.34
2019-01-30T11:47:30.784Z,76.34
2019-01-30T11:48:30.758Z,77.11
2019-01-30T11:49:30.741Z,76.44
2019-01-30T11:50:30.721Z,76.34
2019-01-30T11:51:30.691Z,75.96
2019-01-30T11:52:30.672Z,76.25
2019-01-30T11:53:30.649Z,75.87
2019-01-30T11:54:38.709Z,76.25
2019-01-30T11:55:30.602Z,76.06
2019-01-30T11:56:30.583Z,77.77
2019-01-30T11:57:30.555Z,78.00
2019-01-30T11:58:30.543Z,77.90
2019-01-30T11:59:30.515Z,77.43
2019-01-30T12:00:30.489Z,77.62
2019-01-30T12:01:30.473Z,76.20
2019-01-30T12:02:30.445Z,75.15
2019-01-30T12:03:30.423Z,75.15
2019-01-30T12:04:30.403Z,75.24
2019-01-30T12:05:30.392Z,75.87
2019-01-30T12:06:30.357Z,76.95
2019-01-30T12:07:30.335Z,77.43
2019-01-30T12:08:30.315Z,76.57
2019-01-30T12:09:30.287Z,75.96
2019-01-30T12:10:30.265Z,76.34
2019-01-30T12:11:30.251Z,76.73
2019-01-30T12:12:30.221Z,76.44
2019-01-30T12:13:30.202Z,76.34
2019-01-30T12:14:30.183Z,76.34
2019-01-30T12:15:30.157Z,76.25
2019-01-30T12:16:30.134Z,76.06
2019-01-30T12:17:30.113Z,76.63
2019-01-30T12:18:30.090Z,76.15
2019-01-30T12:19:30.067Z,75.78
2019-01-30T12:20:30.044Z,76.63
2019-01-30T12:21:30.021Z,77.29
2019-01-30T12:22:30.009Z,76.73
2019-01-30T12:23:29.977Z,76.44
2019-01-30T12:24:29.956Z,76.44
2019-01-30T12:25:29.931Z,76.92
2019-01-30T12:26:29.909Z,76.15
2019-01-30T12:27:29.893Z,76.25
2019-01-30T12:28:29.866Z,76.25
2019-01-30T12:29:29.841Z,76.54
2019-01-30T12:30:29.821Z,76.25
2019-01-30T12:31:29.800Z,76.25
2019-01-30T12:32:29.773Z,76.34
2019-01-30T12:33:29.757Z,76.34
2019-01-30T12:34:29.751Z,76.82
2019-01-30T12:35:29.751Z,76.25
2019-01-30T12:36:29.686Z,76.54
2019-01-30T12:37:29.664Z,76.82
2019-01-30T12:38:29.641Z,76.73
2019-01-30T12:39:29.613Z,77.58
2019-01-30T12:40:29.597Z,77.58
2019-01-30T12:41:29.583Z,78.53
2019-01-30T12:42:29.551Z,76.87
2019-01-30T12:43:29.523Z,77.29
2019-01-30T12:44:29.501Z,77.48
2019-01-30T12:45:29.479Z,77.67
2019-01-30T12:46:29.455Z,77.20
2019-01-30T12:47:29.433Z,77.77
2019-01-30T12:48:29.418Z,78.02
2019-01-30T12:49:29.387Z,78.53
2019-01-30T12:50:29.365Z,78.62
2019-01-30T12:51:29.342Z,78.53
2019-01-30T12:52:29.324Z,77.54